createdAt,value
2022-12-09T00:01:19.349Z,1.57
2022-12-09T00:03:48.775Z,1.70
2022-12-09T00:06:18.877Z,1.60
2022-12-09T00:08:47.410Z,1.30
2022-12-09T00:11:16.995Z,1.20
2022-12-09T00:13:45.876Z,1.30
2022-12-09T00:16:17.579Z,1.40
2022-12-09T00:18:46.342Z,1.20
2022-12-09T00:21:16.870Z,1.40
2022-12-09T00:23:45.447Z,1.40
2022-12-09T00:26:14.433Z,1.67
2022-12-09T00:28:43.774Z,1.47
2022-12-09T00:31:15.895Z,1.30
2022-12-09T00:33:45.965Z,1.60
2022-12-09T00:36:16.545Z,1.60
2022-12-09T00:38:45.707Z,1.50
2022-12-09T00:41:15.564Z,1.70
2022-12-09T00:43:44.898Z,1.63
2022-12-09T00:46:14.864Z,1.50
2022-12-09T00:48:45.673Z,1.50
2022-12-09T00:51:17.550Z,1.33
2022-12-09T00:53:47.725Z,1.30
2022-12-09T00:56:16.428Z,1.30
2022-12-09T00:58:44.790Z,1.40
2022-12-09T01:01:13.670Z,1.63
2022-12-09T01:03:42.156Z,1.70
2022-12-09T01:06:12.439Z,1.63
2022-12-09T01:08:43.025Z,1.50
2022-12-09T01:11:12.669Z,1.47
2022-12-09T01:13:41.319Z,1.37
2022-12-09T01:16:16.070Z,1.40
2022-12-09T01:18:45.056Z,1.20
2022-12-09T01:21:13.602Z,1.23
2022-12-09T01:23:44.067Z,1.50
2022-12-09T01:26:13.279Z,1.47
2022-12-09T01:28:41.991Z,1.50
2022-12-09T01:31:13.281Z,1.50
2022-12-09T01:33:42.079Z,1.50
2022-12-09T01:36:13.451Z,1.70
2022-12-09T01:38:43.722Z,1.67
2022-12-09T01:41:12.222Z,1.47
2022-12-09T01:43:41.587Z,1.47
2022-12-09T01:46:10.560Z,1.43
2022-12-09T01:48:41.812Z,1.53
2022-12-09T01:51:13.781Z,1.40
2022-12-09T01:53:45.863Z,1.80
2022-12-09T01:56:19.191Z,1.47
2022-12-09T01:58:48.430Z,1.60
2022-12-09T02:01:18.182Z,1.50
2022-12-09T02:03:47.014Z,1.30
2022-12-09T02:06:16.782Z,1.20
2022-12-09T02:08:49.764Z,1.40
2022-12-09T02:11:27.181Z,1.10
2022-12-09T02:14:04.556Z,1.20
2022-12-09T02:16:44.950Z,1.67
2022-12-09T02:19:23.830Z,1.33
2022-12-09T02:21:58.236Z,1.10
2022-12-09T02:24:37.426Z,1.20
2022-12-09T02:27:14.626Z,1.00
2022-12-09T02:30:01.889Z,1.10
2022-12-09T02:33:04.386Z,1.17
2022-12-09T02:35:39.421Z,1.00
2022-12-09T02:38:12.431Z,1.30
2022-12-09T02:40:47.424Z,1.10
2022-12-09T02:43:18.456Z,1.10
2022-12-09T02:45:48.927Z,1.13
2022-12-09T02:48:25.146Z,1.00
2022-12-09T02:50:57.380Z,1.00
2022-12-09T02:53:27.769Z,1.10
2022-12-09T02:55:57.599Z,1.20
2022-12-09T02:58:26.059Z,1.00
2022-12-09T03:00:57.414Z,1.10
2022-12-09T03:03:26.578Z,1.13
2022-12-09T03:06:02.807Z,1.10
2022-12-09T03:08:41.352Z,1.23
2022-12-09T03:11:12.706Z,1.20
2022-12-09T03:13:48.626Z,1.10
2022-12-09T03:16:24.410Z,1.27
2022-12-09T03:18:59.642Z,1.10
2022-12-09T03:21:32.970Z,1.00
2022-12-09T03:24:03.379Z,1.20
2022-12-09T03:26:35.087Z,1.00
2022-12-09T03:29:08.674Z,1.20
2022-12-09T03:31:39.535Z,0.93
2022-12-09T03:34:11.501Z,1.00
2022-12-09T03:36:43.803Z,1.20
2022-12-09T03:39:16.559Z,1.30
2022-12-09T03:41:48.886Z,1.27
2022-12-09T03:44:23.289Z,1.30
2022-12-09T03:46:51.727Z,0.97
2022-12-09T03:49:20.392Z,1.20
2022-12-09T03:51:55.589Z,1.20
2022-12-09T03:54:28.389Z,1.20
2022-12-09T03:56:59.378Z,1.10
2022-12-09T03:59:31.372Z,1.40
2022-12-09T04:02:00.295Z,1.20
2022-12-09T04:04:29.607Z,1.17
2022-12-09T04:06:59.909Z,0.97
2022-12-09T04:09:28.490Z,1.00
2022-12-09T04:11:56.924Z,1.33
2022-12-09T04:14:25.443Z,1.20
2022-12-09T04:16:54.142Z,1.20
2022-12-09T04:19:22.721Z,1.30
2022-12-09T04:21:51.578Z,1.13
2022-12-09T04:24:21.638Z,1.20
2022-12-09T04:26:50.180Z,1.20
2022-12-09T04:29:18.950Z,1.30
2022-12-09T04:31:47.342Z,1.53
2022-12-09T04:34:15.783Z,1.40
2022-12-09T04:36:44.409Z,1.43
2022-12-09T04:39:12.813Z,0.90
2022-12-09T04:41:42.834Z,1.17
2022-12-09T04:44:11.331Z,1.10
2022-12-09T04:46:39.844Z,1.27
2022-12-09T04:49:08.932Z,1.27
2022-12-09T04:51:39.884Z,1.30
2022-12-09T04:54:13.058Z,1.17
2022-12-09T04:56:43.139Z,1.13
2022-12-09T04:59:11.815Z,1.57
2022-12-09T05:01:40.637Z,1.10
2022-12-09T05:04:09.540Z,1.40
2022-12-09T05:06:38.650Z,1.30
2022-12-09T05:09:07.246Z,1.63
2022-12-09T05:11:37.709Z,1.37
2022-12-09T05:14:07.845Z,1.23
2022-12-09T05:16:36.633Z,1.37
2022-12-09T05:19:05.523Z,1.30
2022-12-09T05:21:34.132Z,1.57
2022-12-09T05:24:03.817Z,3.80
2022-12-09T05:26:32.292Z,6.20
2022-12-09T05:29:00.860Z,3.67
2022-12-09T05:31:31.102Z,3.33
2022-12-09T05:34:00.809Z,2.07
2022-12-09T05:36:29.735Z,2.87
2022-12-09T05:38:58.539Z,1.93
2022-12-09T05:41:27.335Z,1.80
2022-12-09T05:43:56.009Z,1.70
2022-12-09T05:46:24.462Z,1.40
2022-12-09T05:48:54.812Z,1.73
2022-12-09T05:51:25.609Z,1.50
2022-12-09T05:53:54.872Z,1.40
2022-12-09T05:56:25.410Z,1.30
2022-12-09T05:58:55.663Z,1.40
2022-12-09T06:01:24.993Z,1.50
2022-12-09T06:03:56.701Z,1.30
2022-12-09T06:06:28.524Z,1.40
2022-12-09T06:08:58.945Z,1.40
2022-12-09T06:11:29.147Z,1.80
2022-12-09T06:13:57.711Z,1.33
2022-12-09T06:16:27.208Z,1.67
2022-12-09T06:18:57.681Z,1.17
2022-12-09T06:21:26.706Z,1.33
2022-12-09T06:23:55.603Z,1.40
2022-12-09T06:26:26.140Z,1.37
2022-12-09T06:28:57.191Z,1.13
2022-12-09T06:31:26.703Z,1.20
2022-12-09T06:33:58.393Z,1.23
2022-12-09T06:36:29.640Z,1.70
2022-12-09T06:39:05.921Z,1.03
2022-12-09T06:41:38.687Z,1.10
2022-12-09T06:44:07.444Z,1.00
2022-12-09T06:46:36.105Z,1.20
2022-12-09T06:49:06.493Z,1.60
2022-12-09T06:51:35.167Z,1.47
2022-12-09T06:54:03.834Z,1.33
2022-12-09T06:56:32.845Z,1.50
2022-12-09T06:59:01.610Z,2.30
2022-12-09T07:01:30.266Z,1.10
2022-12-09T07:03:59.372Z,1.10
2022-12-09T07:06:31.408Z,0.90
2022-12-09T07:09:02.424Z,0.87
2022-12-09T07:11:32.755Z,1.07
2022-12-09T07:14:02.182Z,1.00
2022-12-09T07:16:31.284Z,0.70
2022-12-09T07:19:00.296Z,1.00
2022-12-09T07:21:30.999Z,1.10
2022-12-09T07:24:01.844Z,1.20
2022-12-09T07:26:32.693Z,1.10
2022-12-09T07:29:03.800Z,1.30
2022-12-09T07:31:32.690Z,1.30
2022-12-09T07:34:02.070Z,1.10
2022-12-09T07:36:33.816Z,0.80
2022-12-09T07:39:04.722Z,0.90
2022-12-09T07:41:33.813Z,1.00
2022-12-09T07:44:02.627Z,0.80
2022-12-09T07:46:31.420Z,0.87
2022-12-09T07:49:00.355Z,1.00
2022-12-09T07:51:29.798Z,1.10
2022-12-09T07:54:00.350Z,0.90
2022-12-09T07:56:29.394Z,2.70
2022-12-09T07:58:58.843Z,1.13
2022-12-09T08:01:29.322Z,0.87
2022-12-09T08:03:58.451Z,0.93
2022-12-09T08:06:29.332Z,0.90
2022-12-09T08:09:02.154Z,0.90
2022-12-09T08:11:33.099Z,0.90
2022-12-09T08:14:10.830Z,1.30
2022-12-09T08:16:41.117Z,0.90
2022-12-09T08:19:10.516Z,1.00
2022-12-09T08:21:39.802Z,0.90
2022-12-09T08:24:13.214Z,1.10
2022-12-09T08:26:42.523Z,1.33
2022-12-09T08:29:13.621Z,1.00
2022-12-09T08:31:44.065Z,1.27
2022-12-09T08:34:13.491Z,1.50
2022-12-09T08:36:43.546Z,1.20
2022-12-09T08:39:14.809Z,1.83
2022-12-09T08:41:45.470Z,1.33
2022-12-09T08:44:16.583Z,1.10
2022-12-09T08:46:47.322Z,1.20
2022-12-09T08:49:19.134Z,1.27
2022-12-09T08:51:49.304Z,1.13
2022-12-09T08:54:19.874Z,1.40
2022-12-09T08:56:49.508Z,1.10
2022-12-09T08:59:18.770Z,1.00
2022-12-09T09:01:47.502Z,1.70
2022-12-09T09:04:17.629Z,1.00
2022-12-09T09:06:50.232Z,1.10
2022-12-09T09:09:22.404Z,1.20
2022-12-09T09:11:51.769Z,1.10
2022-12-09T09:14:20.918Z,1.10
2022-12-09T09:16:49.992Z,0.90
2022-12-09T09:19:20.771Z,1.00
2022-12-09T09:21:50.014Z,1.00
2022-12-09T09:24:22.391Z,1.00
2022-12-09T09:26:52.445Z,1.10
2022-12-09T09:29:22.848Z,1.33
2022-12-09T09:31:56.196Z,1.00
2022-12-09T09:34:26.285Z,1.20
2022-12-09T09:36:55.981Z,1.20
2022-12-09T09:39:26.627Z,0.93
2022-12-09T09:41:59.576Z,1.07
2022-12-09T09:44:34.053Z,0.97
2022-12-09T09:47:07.788Z,1.40
2022-12-09T09:49:39.125Z,1.33
2022-12-09T09:52:15.824Z,1.30
2022-12-09T09:54:45.934Z,1.20
2022-12-09T09:57:17.506Z,1.10
2022-12-09T10:00:00.792Z,1.30
2022-12-09T10:02:47.267Z,1.00
2022-12-09T10:05:23.028Z,1.13
2022-12-09T10:07:56.567Z,1.30
2022-12-09T10:10:40.452Z,1.80
2022-12-09T10:13:29.895Z,1.77
2022-12-09T10:16:07.526Z,2.00
2022-12-09T10:18:45.607Z,1.77
2022-12-09T10:21:20.129Z,1.87
2022-12-09T10:23:50.703Z,1.50
2022-12-09T10:26:25.589Z,1.50
2022-12-09T10:29:00.023Z,1.83
2022-12-09T10:31:29.972Z,1.60
2022-12-09T10:33:59.105Z,2.20
2022-12-09T10:36:35.394Z,2.60
2022-12-09T10:39:06.081Z,2.10
2022-12-09T10:42:03.921Z,2.00
2022-12-09T10:44:32.764Z,1.80
2022-12-09T10:47:04.203Z,1.60
2022-12-09T10:49:34.970Z,2.10
2022-12-09T10:52:05.357Z,2.37
2022-12-09T10:54:38.742Z,2.30
2022-12-09T10:57:26.703Z,2.23
2022-12-09T11:00:01.911Z,2.60
2022-12-09T11:02:31.994Z,2.00
2022-12-09T11:05:24.701Z,1.70
2022-12-09T11:07:58.395Z,2.33
2022-12-09T11:10:29.208Z,1.93
2022-12-09T11:13:05.337Z,2.67
2022-12-09T11:15:40.592Z,6.70
2022-12-09T11:18:25.665Z,2.77
2022-12-09T11:20:59.069Z,2.77
2022-12-09T11:23:28.041Z,2.20
2022-12-09T11:25:59.410Z,2.70
2022-12-09T11:28:31.326Z,2.87
2022-12-09T11:31:28.383Z,2.47
2022-12-09T11:33:55.547Z,3.00
2022-12-09T11:36:30.768Z,2.60
2022-12-09T11:39:17.317Z,2.50
2022-12-09T11:42:08.116Z,4.53
2022-12-09T11:44:43.338Z,2.83
2022-12-09T11:47:14.239Z,3.47
2022-12-09T11:49:49.596Z,2.80
2022-12-09T11:52:27.306Z,2.33
2022-12-09T11:55:07.482Z,2.30
2022-12-09T11:57:42.695Z,1.73
2022-12-09T12:00:22.795Z,2.40
2022-12-09T12:03:01.069Z,1.87
2022-12-09T12:05:34.840Z,2.17
2022-12-09T12:08:10.239Z,2.00
2022-12-09T12:10:43.060Z,2.80
2022-12-09T12:13:18.123Z,2.17
2022-12-09T12:15:52.417Z,2.13
2022-12-09T12:18:23.149Z,2.43
2022-12-09T12:21:20.105Z,3.17
2022-12-09T12:24:18.078Z,2.97
2022-12-09T12:26:58.270Z,2.70
2022-12-09T12:29:42.149Z,1.90
2022-12-09T12:32:28.985Z,1.90
2022-12-09T12:35:10.130Z,2.03
2022-12-09T12:37:54.360Z,5.67
2022-12-09T12:40:33.780Z,2.30
2022-12-09T12:43:28.491Z,2.67
2022-12-09T12:46:19.831Z,3.10
2022-12-09T12:49:17.680Z,2.60
2022-12-09T12:51:59.527Z,2.47
2022-12-09T12:54:40.972Z,2.60
2022-12-09T12:57:18.390Z,2.83
2022-12-09T12:59:58.719Z,2.77
2022-12-09T13:02:40.002Z,2.17
2022-12-09T13:05:17.336Z,2.40
2022-12-09T13:07:50.281Z,2.30
2022-12-09T13:10:23.707Z,2.57
2022-12-09T13:12:57.066Z,2.23
2022-12-09T13:15:32.397Z,1.73
2022-12-09T13:18:05.842Z,2.73
2022-12-09T13:20:44.994Z,1.60
2022-12-09T13:23:34.490Z,1.40
2022-12-09T13:26:13.526Z,1.57
2022-12-09T13:28:51.730Z,2.03
2022-12-09T13:31:27.353Z,2.17
2022-12-09T13:34:06.097Z,2.33
2022-12-09T13:36:41.574Z,1.70
2022-12-09T13:39:13.192Z,1.50
2022-12-09T13:42:04.313Z,1.80
2022-12-09T13:44:37.245Z,1.90
2022-12-09T13:47:16.468Z,2.40
2022-12-09T13:49:56.819Z,2.20
2022-12-09T13:52:51.397Z,2.10
2022-12-09T13:55:29.421Z,2.20
2022-12-09T13:58:08.083Z,1.80
2022-12-09T14:00:38.334Z,1.93
2022-12-09T14:03:26.723Z,1.80
2022-12-09T14:05:58.552Z,1.40
2022-12-09T14:08:33.307Z,2.20
2022-12-09T14:11:40.645Z,1.63
2022-12-09T14:14:57.711Z,1.80
2022-12-09T14:18:03.553Z,1.80
2022-12-09T14:20:38.367Z,1.90
2022-12-09T14:23:19.682Z,2.00
2022-12-09T14:26:01.100Z,1.60
2022-12-09T14:28:55.195Z,2.00
2022-12-09T14:31:50.181Z,3.00
2022-12-09T14:34:27.505Z,2.00
2022-12-09T14:37:07.344Z,1.73
2022-12-09T14:39:49.966Z,1.80
2022-12-09T14:42:32.498Z,2.20
2022-12-09T14:45:14.213Z,2.07
2022-12-09T14:47:46.345Z,1.90
2022-12-09T14:50:16.990Z,2.10
2022-12-09T14:52:54.205Z,1.97
2022-12-09T14:55:26.081Z,2.00
2022-12-09T14:57:57.797Z,1.87
2022-12-09T15:00:30.114Z,1.83
2022-12-09T15:05:57.772Z,1.97
2022-12-09T15:08:30.871Z,1.83
2022-12-09T15:11:02.001Z,1.90
2022-12-09T15:13:37.534Z,2.23
2022-12-09T15:16:10.952Z,2.00
2022-12-09T15:18:41.793Z,1.90
2022-12-09T15:21:10.969Z,2.40
2022-12-09T15:23:42.739Z,2.00
2022-12-09T15:26:27.213Z,2.13
2022-12-09T15:29:06.362Z,2.40
2022-12-09T15:31:35.743Z,2.17
2022-12-09T15:34:13.237Z,2.00
2022-12-09T15:36:44.353Z,2.20
2022-12-09T15:39:19.717Z,2.37
2022-12-09T15:42:09.676Z,2.00
2022-12-09T15:44:44.590Z,1.80
2022-12-09T15:47:24.022Z,2.20
2022-12-09T15:49:55.487Z,1.73
2022-12-09T15:52:27.969Z,2.30
2022-12-09T15:54:57.867Z,1.90
2022-12-09T15:57:29.120Z,1.70
2022-12-09T15:59:59.994Z,2.00
2022-12-09T16:02:31.305Z,2.03
2022-12-09T16:05:03.380Z,2.47
2022-12-09T16:07:33.130Z,2.97
2022-12-09T16:10:11.260Z,2.67
2022-12-09T16:12:51.858Z,2.70
2022-12-09T16:15:59.159Z,3.30
2022-12-09T16:18:30.337Z,2.53
2022-12-09T16:21:28.629Z,4.00
2022-12-09T16:24:05.826Z,3.07
2022-12-09T16:26:38.344Z,3.03
2022-12-09T16:29:08.946Z,4.00
2022-12-09T16:31:41.276Z,3.20
2022-12-09T16:34:21.576Z,3.60
2022-12-09T16:36:56.590Z,4.10
2022-12-09T16:39:38.178Z,3.80
2022-12-09T16:42:46.538Z,3.20
2022-12-09T16:45:45.463Z,3.17
2022-12-09T16:48:41.800Z,2.70
2022-12-09T16:51:58.513Z,3.23
2022-12-09T16:55:04.257Z,3.20
2022-12-09T16:57:46.716Z,3.37
2022-12-09T17:00:55.254Z,3.77
2022-12-09T17:03:50.405Z,3.53
2022-12-09T17:06:43.141Z,3.33
2022-12-09T17:09:13.760Z,4.10
2022-12-09T17:11:48.345Z,2.83
2022-12-09T17:14:17.475Z,4.20
2022-12-09T17:16:46.222Z,3.40
2022-12-09T17:19:16.007Z,2.77
2022-12-09T17:21:44.341Z,2.80
2022-12-09T17:24:13.199Z,2.93
2022-12-09T17:26:41.375Z,3.00
2022-12-09T17:29:09.975Z,2.90
2022-12-09T17:31:38.875Z,3.00
2022-12-09T17:34:07.150Z,3.00
2022-12-09T17:36:37.431Z,3.67
2022-12-09T17:39:06.517Z,3.10
2022-12-09T17:41:35.276Z,3.33
2022-12-09T17:44:03.991Z,3.07
2022-12-09T17:46:32.525Z,3.30
2022-12-09T17:49:01.244Z,3.40
2022-12-09T17:51:35.585Z,3.90
2022-12-09T17:54:09.176Z,4.30
2022-12-09T17:56:37.948Z,3.70
2022-12-09T17:59:08.692Z,3.63
2022-12-09T18:01:38.404Z,6.90
2022-12-09T18:04:13.300Z,5.10
2022-12-09T18:06:44.162Z,4.20
2022-12-09T18:09:15.724Z,4.80
2022-12-09T18:11:44.812Z,4.07
2022-12-09T18:14:13.852Z,4.17
2022-12-09T18:16:42.279Z,4.17
2022-12-09T18:19:15.283Z,4.13
2022-12-09T18:21:43.631Z,3.87
2022-12-09T18:24:13.609Z,6.50
2022-12-09T18:26:42.536Z,5.97
2022-12-09T18:29:11.973Z,6.50
2022-12-09T18:31:40.677Z,5.00
2022-12-09T18:34:09.333Z,9.20
2022-12-09T18:36:38.322Z,5.87
2022-12-09T18:39:07.352Z,5.53
2022-12-09T18:41:37.433Z,5.40
2022-12-09T18:44:07.763Z,5.23
2022-12-09T18:46:38.574Z,4.50
2022-12-09T18:49:10.354Z,4.30
2022-12-09T18:51:40.140Z,4.23
2022-12-09T18:54:09.475Z,5.53
2022-12-09T18:56:39.154Z,4.97
2022-12-09T18:59:10.958Z,5.17
2022-12-09T19:01:41.414Z,5.90
2022-12-09T19:04:15.753Z,5.00
2022-12-09T19:06:46.344Z,6.70
2022-12-09T19:09:17.072Z,6.57
2022-12-09T19:11:48.473Z,6.07
2022-12-09T19:14:18.162Z,5.00
2022-12-09T19:16:47.499Z,5.57
2022-12-09T19:19:18.417Z,5.83
2022-12-09T19:21:48.151Z,5.47
2022-12-09T19:24:18.895Z,5.83
2022-12-09T19:26:48.769Z,6.30
2022-12-09T19:29:18.024Z,6.83
2022-12-09T19:31:48.496Z,6.53
2022-12-09T19:34:19.004Z,6.23
2022-12-09T19:36:49.109Z,6.50
2022-12-09T19:39:19.637Z,5.50
2022-12-09T19:41:50.237Z,5.73
2022-12-09T19:44:44.444Z,6.13
2022-12-09T19:47:09.119Z,6.67
2022-12-09T19:49:40.683Z,5.60
2022-12-09T19:52:08.932Z,5.10
2022-12-09T19:54:37.195Z,6.50
2022-12-09T19:57:07.705Z,7.87
2022-12-09T19:59:37.812Z,5.70
2022-12-09T20:02:08.149Z,5.60
2022-12-09T20:04:52.106Z,6.00
2022-12-09T20:07:21.246Z,6.40
2022-12-09T20:09:50.080Z,7.40
2022-12-09T20:12:19.825Z,6.23
2022-12-09T20:14:48.493Z,6.67
2022-12-09T20:17:17.735Z,6.23
2022-12-09T20:19:46.135Z,6.40
2022-12-09T20:22:14.540Z,5.60
2022-12-09T20:24:43.510Z,6.20
2022-12-09T20:27:13.201Z,6.63
2022-12-09T20:29:43.139Z,6.13
2022-12-09T20:32:11.732Z,6.03
2022-12-09T20:34:40.429Z,5.80
2022-12-09T20:37:09.628Z,5.90
2022-12-09T20:39:40.812Z,6.10
2022-12-09T20:42:09.186Z,5.47
2022-12-09T20:44:37.466Z,5.40
2022-12-09T20:47:07.449Z,5.70
2022-12-09T20:49:35.954Z,5.10
2022-12-09T20:52:04.247Z,5.50
2022-12-09T20:54:32.642Z,5.07
2022-12-09T20:57:01.438Z,5.03
2022-12-09T20:59:30.012Z,4.93
2022-12-09T21:01:58.721Z,5.43
2022-12-09T21:04:28.603Z,5.07
2022-12-09T21:06:56.784Z,5.30
2022-12-09T21:09:27.496Z,5.17
2022-12-09T21:11:55.925Z,5.10
2022-12-09T21:14:28.100Z,4.93
2022-12-09T21:17:02.442Z,5.00
2022-12-09T21:19:32.673Z,5.57
2022-12-09T21:22:01.107Z,5.87
2022-12-09T21:24:29.694Z,6.07
2022-12-09T21:27:01.185Z,6.13
2022-12-09T21:29:32.138Z,5.17
2022-12-09T21:32:02.267Z,5.50
2022-12-09T21:34:33.855Z,4.90
2022-12-09T21:37:02.576Z,6.00
2022-12-09T21:39:31.081Z,5.37
2022-12-09T21:41:59.727Z,5.17
2022-12-09T21:44:28.569Z,5.40
2022-12-09T21:46:56.733Z,5.40
2022-12-09T21:49:25.150Z,4.90
2022-12-09T21:51:55.030Z,5.00
2022-12-09T21:54:23.322Z,4.93
2022-12-09T21:56:51.598Z,5.20
2022-12-09T21:59:20.271Z,5.60
2022-12-09T22:01:48.741Z,5.10
2022-12-09T22:04:18.055Z,4.90
2022-12-09T22:06:47.880Z,6.17
2022-12-09T22:09:20.839Z,5.73
2022-12-09T22:11:49.431Z,5.20
2022-12-09T22:14:17.952Z,5.87
2022-12-09T22:16:47.148Z,5.20
2022-12-09T22:19:19.467Z,5.43
2022-12-09T22:21:48.226Z,6.50
2022-12-09T22:24:18.546Z,6.13
2022-12-09T22:26:47.474Z,7.40
2022-12-09T22:29:17.475Z,7.87
2022-12-09T22:31:46.664Z,6.90
2022-12-09T22:34:16.494Z,6.30
2022-12-09T22:36:45.743Z,6.17
2022-12-09T22:39:15.753Z,5.97
2022-12-09T22:41:46.298Z,5.57
2022-12-09T22:44:16.549Z,5.43
2022-12-09T22:46:45.700Z,4.90
2022-12-09T22:49:15.512Z,4.57
2022-12-09T22:51:44.838Z,4.77
2022-12-09T22:54:13.394Z,4.60
2022-12-09T22:56:43.709Z,4.70
2022-12-09T22:59:14.902Z,4.00
2022-12-09T23:01:45.161Z,4.27
2022-12-09T23:04:15.088Z,3.93
2022-12-09T23:06:43.554Z,3.67
2022-12-09T23:09:17.347Z,3.60
2022-12-09T23:11:45.901Z,3.70
2022-12-09T23:14:16.608Z,3.93
2022-12-09T23:16:45.800Z,3.20
2022-12-09T23:19:14.826Z,2.90
2022-12-09T23:21:44.311Z,3.17
2022-12-09T23:24:17.365Z,3.50
2022-12-09T23:26:49.442Z,3.20
2022-12-09T23:29:19.101Z,2.93
2022-12-09T23:31:47.283Z,3.00
2022-12-09T23:34:16.976Z,2.83
2022-12-09T23:36:46.112Z,3.10
2022-12-09T23:39:17.550Z,2.83
2022-12-09T23:41:46.787Z,3.00
2022-12-09T23:44:17.305Z,3.00
2022-12-09T23:46:47.247Z,2.90
2022-12-09T23:49:16.158Z,2.47
2022-12-09T23:51:45.252Z,2.87
2022-12-09T23:54:15.817Z,3.23
2022-12-09T23:56:49.820Z,3.20
2022-12-09T23:59:20.004Z,2.77
